Impacts TAF Board
For situational awareness. Not to be used for flight planning purposes.
IDs:

KEWR - Newark Intl, NJ, US

Issued at 1122 UTC 23 Mar 2019
Updated at 1218 UTC 23 Mar 2019
Potential Impact None Slight Moderate High
Time<<24/01Z 24/02Z 24/03Z 24/04Z 24/05Z 24/06Z 24/07Z 24/08Z 24/09Z 24/10Z 24/11Z 24/12Z 24/13Z>>
Type PRVL PRVL PRVL PRVL PRVL PRVL PRVL PRVL PRVL PRVL PRVL PRVL PRVL
VIS >6 >6 >6 >6 >6 >6 >6 >6 >6 >6 >6 >6 >6
CIG -- -- -- -- -- -- -- -- -- -- -- -- --
Cover SKC SKC SKC SKC SKC SKC SKC SKC SKC SKC SKC SKC SKC
FltCat VFR VFR VFR VFR VFR VFR VFR VFR VFR VFR VFR VFR VFR
WX -- -- -- -- -- -- -- -- -- -- -- -- --
WDir 300 300 290 290 290 290 290 290 290 290 270 270 270
WSpd 12 12 10 10 10 10 10 10 10 10 8 8 8
WGst 19 19 -- -- -- -- -- -- -- -- -- -- --
Raw TAF
KEWR 231122Z 2312/2418 30019G30KT P6SM SCT040 SCT090
  FM231700 30018G28KT P6SM FEW040
  FM232200 30015G25KT P6SM SKC
  FM240100 30012G19KT P6SM SKC
  FM240300 29010KT P6SM SKC
  FM241100 27008KT P6SM SKC
  FM241700 25010KT P6SM SCT180


METAR Board
Radar Display
Forecast Discussion
For situational awareness. Not to be used for flight planning purposes.